sensor_id;sensor_type;location;lat;lon;timestamp;pressure;altitude;pressure_sealevel;temperature;humidity
66381;BME280;53177;52.648;1.214;2022-12-18T00:01:41;101883.38;;;-0.87;100.00
66381;BME280;53177;52.648;1.214;2022-12-18T00:04:11;101886.31;;;-0.99;100.00
66381;BME280;53177;52.648;1.214;2022-12-18T00:06:40;101882.56;;;-0.97;100.00
66381;BME280;53177;52.648;1.214;2022-12-18T00:09:05;101877.97;;;-0.95;100.00
66381;BME280;53177;52.648;1.214;2022-12-18T00:11:31;101883.56;;;-0.98;100.00
66381;BME280;53177;52.648;1.214;2022-12-18T00:13:58;101876.75;;;-1.00;100.00
66381;BME280;53177;52.648;1.214;2022-12-18T00:16:25;101868.84;;;-1.00;100.00
66381;BME280;53177;52.648;1.214;2022-12-18T00:18:54;101871.88;;;-0.95;100.00
66381;BME280;53177;52.648;1.214;2022-12-18T00:21:20;101867.03;;;-1.00;100.00
66381;BME280;53177;52.648;1.214;2022-12-18T00:23:47;101861.19;;;-1.04;100.00
66381;BME280;53177;52.648;1.214;2022-12-18T00:26:19;101868.00;;;-1.01;100.00
66381;BME280;53177;52.648;1.214;2022-12-18T00:28:45;101870.66;;;-1.01;100.00
66381;BME280;53177;52.648;1.214;2022-12-18T00:31:17;101866.34;;;-1.02;100.00
66381;BME280;53177;52.648;1.214;2022-12-18T00:33:43;101877.47;;;-1.08;100.00
66381;BME280;53177;52.648;1.214;2022-12-18T00:36:12;101875.44;;;-1.24;100.00
66381;BME280;53177;52.648;1.214;2022-12-18T00:38:38;101869.72;;;-1.19;100.00
66381;BME280;53177;52.648;1.214;2022-12-18T00:41:04;101870.41;;;-1.17;100.00
66381;BME280;53177;52.648;1.214;2022-12-18T00:43:30;101874.84;;;-1.18;100.00
66381;BME280;53177;52.648;1.214;2022-12-18T00:45:58;101878.16;;;-1.06;100.00
66381;BME280;53177;52.648;1.214;2022-12-18T00:48:24;101876.66;;;-1.18;100.00
66381;BME280;53177;52.648;1.214;2022-12-18T00:50:50;101886.53;;;-1.20;100.00
66381;BME280;53177;52.648;1.214;2022-12-18T00:53:15;101878.75;;;-1.22;100.00
66381;BME280;53177;52.648;1.214;2022-12-18T00:55:41;101884.44;;;-1.27;100.00
66381;BME280;53177;52.648;1.214;2022-12-18T00:58:08;101879.56;;;-1.21;100.00
66381;BME280;53177;52.648;1.214;2022-12-18T01:00:33;101871.66;;;-1.21;100.00
66381;BME280;53177;52.648;1.214;2022-12-18T01:02:59;101866.38;;;-1.21;100.00
66381;BME280;53177;52.648;1.214;2022-12-18T01:05:25;101869.41;;;-1.16;100.00
66381;BME280;53177;52.648;1.214;2022-12-18T01:07:51;101865.00;;;-1.25;100.00
66381;BME280;53177;52.648;1.214;2022-12-18T01:10:17;101862.38;;;-1.25;100.00
66381;BME280;53177;52.648;1.214;2022-12-18T01:12:44;101866.69;;;-1.24;100.00
66381;BME280;53177;52.648;1.214;2022-12-18T01:15:10;101868.06;;;-1.20;100.00
66381;BME280;53177;52.648;1.214;2022-12-18T01:17:36;101865.97;;;-1.27;100.00
66381;BME280;53177;52.648;1.214;2022-12-18T01:20:02;101859.44;;;-1.22;100.00
66381;BME280;53177;52.648;1.214;2022-12-18T01:22:28;101868.19;;;-1.22;100.00
66381;BME280;53177;52.648;1.214;2022-12-18T01:24:54;101869.88;;;-1.31;100.00
66381;BME280;53177;52.648;1.214;2022-12-18T01:27:19;101862.25;;;-1.24;100.00
66381;BME280;53177;52.648;1.214;2022-12-18T01:29:45;101861.97;;;-1.31;100.00
66381;BME280;53177;52.648;1.214;2022-12-18T01:32:10;101862.38;;;-1.25;100.00
66381;BME280;53177;52.648;1.214;2022-12-18T01:34:37;101845.03;;;-1.28;100.00
66381;BME280;53177;52.648;1.214;2022-12-18T01:37:04;101854.47;;;-1.25;100.00
66381;BME280;53177;52.648;1.214;2022-12-18T01:39:29;101848.50;;;-1.28;100.00
66381;BME280;53177;52.648;1.214;2022-12-18T01:41:55;101855.56;;;-1.18;100.00
66381;BME280;53177;52.648;1.214;2022-12-18T01:49:53;101853.06;;;-1.30;100.00
66381;BME280;53177;52.648;1.214;2022-12-18T01:52:20;101847.09;;;-1.22;100.00
66381;BME280;53177;52.648;1.214;2022-12-18T01:54:47;101848.91;;;-1.22;100.00
66381;BME280;53177;52.648;1.214;2022-12-18T01:57:14;101851.97;;;-1.27;100.00
66381;BME280;53177;52.648;1.214;2022-12-18T01:59:42;101852.69;;;-1.25;100.00
66381;BME280;53177;52.648;1.214;2022-12-18T02:02:08;101843.63;;;-1.22;100.00
66381;BME280;53177;52.648;1.214;2022-12-18T02:04:33;101837.66;;;-1.15;100.00
66381;BME280;53177;52.648;1.214;2022-12-18T02:07:07;101833.34;;;-1.25;100.00
66381;BME280;53177;52.648;1.214;2022-12-18T02:10:00;101843.34;;;-1.19;100.00
66381;BME280;53177;52.648;1.214;2022-12-18T02:15:22;101838.38;;;-1.32;100.00
66381;BME280;53177;52.648;1.214;2022-12-18T02:17:55;101826.31;;;-1.25;100.00
66381;BME280;53177;52.648;1.214;2022-12-18T02:20:42;101826.59;;;-1.28;100.00
66381;BME280;53177;52.648;1.214;2022-12-18T02:28:38;101825.16;;;-1.22;100.00
66381;BME280;53177;52.648;1.214;2022-12-18T02:31:08;101828.78;;;-1.23;100.00
66381;BME280;53177;52.648;1.214;2022-12-18T02:33:36;101833.09;;;-1.22;100.00
66381;BME280;53177;52.648;1.214;2022-12-18T02:36:03;101827.25;;;-1.26;100.00
66381;BME280;53177;52.648;1.214;2022-12-18T02:38:30;101831.44;;;-1.23;100.00
66381;BME280;53177;52.648;1.214;2022-12-18T02:40:56;101824.19;;;-1.21;100.00
66381;BME280;53177;52.648;1.214;2022-12-18T02:43:22;101818.91;;;-1.21;100.00
66381;BME280;53177;52.648;1.214;2022-12-18T02:45:52;101818.63;;;-1.18;100.00
66381;BME280;53177;52.648;1.214;2022-12-18T02:48:27;101822.81;;;-1.25;100.00
66381;BME280;53177;52.648;1.214;2022-12-18T02:51:23;101824.78;;;-1.28;100.00
66381;BME280;53177;52.648;1.214;2022-12-18T02:54:08;101828.94;;;-1.25;100.00
66381;BME280;53177;52.648;1.214;2022-12-18T02:56:50;101836.81;;;-1.15;100.00
66381;BME280;53177;52.648;1.214;2022-12-18T02:59:20;101821.97;;;-1.26;100.00
66381;BME280;53177;52.648;1.214;2022-12-18T03:02:02;101822.25;;;-1.19;100.00
66381;BME280;53177;52.648;1.214;2022-12-18T03:04:43;101825.34;;;-1.34;100.00
66381;BME280;53177;52.648;1.214;2022-12-18T03:07:17;101822.56;;;-1.32;100.00
66381;BME280;53177;52.648;1.214;2022-12-18T03:09:48;101817.56;;;-1.35;100.00
66381;BME280;53177;52.648;1.214;2022-12-18T03:12:23;101814.81;;;-1.43;100.00
66381;BME280;53177;52.648;1.214;2022-12-18T03:15:20;101816.63;;;-1.44;100.00
66381;BME280;53177;52.648;1.214;2022-12-18T03:17:59;101821.78;;;-1.52;100.00
66381;BME280;53177;52.648;1.214;2022-12-18T03:20:29;101820.94;;;-1.53;100.00
66381;BME280;53177;52.648;1.214;2022-12-18T03:23:02;101834.28;;;-1.54;100.00
66381;BME280;53177;52.648;1.214;2022-12-18T03:25:30;101825.81;;;-1.58;100.00
66381;BME280;53177;52.648;1.214;2022-12-18T03:27:59;101813.47;;;-1.57;100.00
66381;BME280;53177;52.648;1.214;2022-12-18T03:30:29;101821.78;;;-1.62;100.00
66381;BME280;53177;52.648;1.214;2022-12-18T03:33:08;101836.78;;;-1.62;100.00
66381;BME280;53177;52.648;1.214;2022-12-18T03:35:39;101838.72;;;-1.64;100.00
66381;BME280;53177;52.648;1.214;2022-12-18T03:38:05;101835.69;;;-1.69;100.00
66381;BME280;53177;52.648;1.214;2022-12-18T03:40:45;101831.50;;;-1.62;100.00
66381;BME280;53177;52.648;1.214;2022-12-18T03:43:40;101824.44;;;-1.71;100.00
66381;BME280;53177;52.648;1.214;2022-12-18T03:46:33;101835.13;;;-1.73;100.00
66381;BME280;53177;52.648;1.214;2022-12-18T03:49:09;101838.88;;;-1.75;100.00
66381;BME280;53177;52.648;1.214;2022-12-18T03:52:24;101841.66;;;-1.77;100.00
66381;BME280;53177;52.648;1.214;2022-12-18T03:54:52;101832.47;;;-1.63;100.00
66381;BME280;53177;52.648;1.214;2022-12-18T03:57:22;101830.81;;;-1.64;100.00
66381;BME280;53177;52.648;1.214;2022-12-18T03:59:51;101830.81;;;-1.64;100.00
66381;BME280;53177;52.648;1.214;2022-12-18T04:02:20;101828.72;;;-1.70;100.00
66381;BME280;53177;52.648;1.214;2022-12-18T04:04:48;101829.13;;;-1.65;100.00
66381;BME280;53177;52.648;1.214;2022-12-18T04:07:17;101814.72;;;-1.61;100.00
66381;BME280;53177;52.648;1.214;2022-12-18T04:09:45;101806.81;;;-1.61;100.00
66381;BME280;53177;52.648;1.214;2022-12-18T04:12:11;101793.22;;;-1.66;100.00
66381;BME280;53177;52.648;1.214;2022-12-18T04:14:36;101790.59;;;-1.66;100.00
66381;BME280;53177;52.648;1.214;2022-12-18T04:17:02;101789.06;;;-1.59;100.00
66381;BME280;53177;52.648;1.214;2022-12-18T04:19:28;101787.09;;;-1.57;100.00
66381;BME280;53177;52.648;1.214;2022-12-18T04:21:54;101786.03;;;-1.64;100.00
66381;BME280;53177;52.648;1.214;2022-12-18T04:24:19;101791.53;;;-1.58;100.00
66381;BME280;53177;52.648;1.214;2022-12-18T04:26:45;101794.88;;;-1.65;100.00
66381;BME280;53177;52.648;1.214;2022-12-18T04:29:10;101789.59;;;-1.65;100.00
66381;BME280;53177;52.648;1.214;2022-12-18T04:31:36;101782.13;;;-1.60;100.00
66381;BME280;53177;52.648;1.214;2022-12-18T04:34:01;101780.59;;;-1.63;100.00
66381;BME280;53177;52.648;1.214;2022-12-18T04:36:27;101775.78;;;-1.77;100.00
66381;BME280;53177;52.648;1.214;2022-12-18T04:38:52;101782.44;;;-1.73;100.00
66381;BME280;53177;52.648;1.214;2022-12-18T04:41:18;101779.38;;;-1.68;100.00
66381;BME280;53177;52.648;1.214;2022-12-18T04:43:43;101773.28;;;-1.69;100.00
66381;BME280;53177;52.648;1.214;2022-12-18T04:46:09;101771.06;;;-1.73;100.00
66381;BME280;53177;52.648;1.214;2022-12-18T04:48:35;101773.53;;;-1.62;100.00
66381;BME280;53177;52.648;1.214;2022-12-18T04:51:00;101766.75;;;-1.65;100.00
66381;BME280;53177;52.648;1.214;2022-12-18T04:53:26;101762.69;;;-1.59;100.00
66381;BME280;53177;52.648;1.214;2022-12-18T04:56:05;101751.38;;;-1.69;100.00
66381;BME280;53177;52.648;1.214;2022-12-18T04:58:31;101757.75;;;-1.72;100.00
66381;BME280;53177;52.648;1.214;2022-12-18T05:00:56;101752.22;;;-1.79;100.00
66381;BME280;53177;52.648;1.214;2022-12-18T05:03:22;101748.03;;;-1.71;100.00
66381;BME280;53177;52.648;1.214;2022-12-18T05:05:51;101745.13;;;-1.78;100.00
66381;BME280;53177;52.648;1.214;2022-12-18T05:08:17;101727.78;;;-1.81;100.00
66381;BME280;53177;52.648;1.214;2022-12-18T05:10:42;101718.50;;;-1.85;100.00
66381;BME280;53177;52.648;1.214;2022-12-18T05:13:07;101721.16;;;-1.85;100.00
66381;BME280;53177;52.648;1.214;2022-12-18T05:15:34;101700.22;;;-1.86;100.00
66381;BME280;53177;52.648;1.214;2022-12-18T05:18:00;101695.94;;;-1.87;100.00
66381;BME280;53177;52.648;1.214;2022-12-18T05:20:26;101693.69;;;-1.82;100.00
66381;BME280;53177;52.648;1.214;2022-12-18T05:22:53;101688.13;;;-1.79;100.00
66381;BME280;53177;52.648;1.214;2022-12-18T05:25:18;101684.81;;;-1.81;100.00
66381;BME280;53177;52.648;1.214;2022-12-18T05:27:44;101684.97;;;-1.83;100.00
66381;BME280;53177;52.648;1.214;2022-12-18T05:30:11;101684.00;;;-1.82;100.00
66381;BME280;53177;52.648;1.214;2022-12-18T05:32:37;101686.03;;;-1.75;100.00
66381;BME280;53177;52.648;1.214;2022-12-18T05:35:06;101691.31;;;-1.75;100.00
66381;BME280;53177;52.648;1.214;2022-12-18T05:37:32;101693.53;;;-1.81;100.00
66381;BME280;53177;52.648;1.214;2022-12-18T05:39:57;101682.19;;;-1.81;100.00
66381;BME280;53177;52.648;1.214;2022-12-18T05:42:23;101676.47;;;-1.76;100.00
66381;BME280;53177;52.648;1.214;2022-12-18T05:44:48;101669.69;;;-1.79;100.00
66381;BME280;53177;52.648;1.214;2022-12-18T05:47:14;101659.28;;;-1.81;100.00
66381;BME280;53177;52.648;1.214;2022-12-18T05:49:39;101668.03;;;-1.80;100.00
66381;BME280;53177;52.648;1.214;2022-12-18T05:52:05;101659.13;;;-1.79;100.00
66381;BME280;53177;52.648;1.214;2022-12-18T05:54:30;101650.72;;;-1.83;100.00
66381;BME280;53177;52.648;1.214;2022-12-18T05:56:57;101630.06;;;-1.87;100.00
66381;BME280;53177;52.648;1.214;2022-12-18T05:59:22;101617.72;;;-1.87;100.00
66381;BME280;53177;52.648;1.214;2022-12-18T06:01:48;101607.72;;;-1.83;100.00
66381;BME280;53177;52.648;1.214;2022-12-18T06:04:14;101597.59;;;-1.78;100.00
66381;BME280;53177;52.648;1.214;2022-12-18T06:06:40;101588.53;;;-1.75;100.00
66381;BME280;53177;52.648;1.214;2022-12-18T06:09:05;101574.81;;;-1.69;100.00
66381;BME280;53177;52.648;1.214;2022-12-18T06:11:34;101561.47;;;-1.68;100.00
66381;BME280;53177;52.648;1.214;2022-12-18T06:14:00;101555.66;;;-1.71;100.00
66381;BME280;53177;52.648;1.214;2022-12-18T06:16:27;101556.34;;;-1.69;100.00
66381;BME280;53177;52.648;1.214;2022-12-18T06:18:53;101545.50;;;-1.66;100.00
66381;BME280;53177;52.648;1.214;2022-12-18T06:21:18;101548.94;;;-1.56;100.00
66381;BME280;53177;52.648;1.214;2022-12-18T06:23:44;101546.28;;;-1.56;100.00
66381;BME280;53177;52.648;1.214;2022-12-18T06:26:12;101548.63;;;-1.53;100.00
66381;BME280;53177;52.648;1.214;2022-12-18T06:28:38;101545.97;;;-1.53;100.00
66381;BME280;53177;52.648;1.214;2022-12-18T06:31:04;101544.63;;;-1.57;100.00
66381;BME280;53177;52.648;1.214;2022-12-18T06:33:30;101554.34;;;-1.58;100.00
66381;BME280;53177;52.648;1.214;2022-12-18T06:36:00;101565.13;;;-1.51;100.00
66381;BME280;53177;52.648;1.214;2022-12-18T06:38:26;101575.13;;;-1.55;100.00
66381;BME280;53177;52.648;1.214;2022-12-18T06:40:52;101571.34;;;-1.52;100.00
66381;BME280;53177;52.648;1.214;2022-12-18T06:43:17;101577.16;;;-1.48;100.00
66381;BME280;53177;52.648;1.214;2022-12-18T06:45:42;101579.13;;;-1.50;100.00
66381;BME280;53177;52.648;1.214;2022-12-18T06:48:08;101586.59;;;-1.46;100.00
66381;BME280;53177;52.648;1.214;2022-12-18T06:50:33;101579.78;;;-1.48;100.00
66381;BME280;53177;52.648;1.214;2022-12-18T06:52:59;101575.88;;;-1.44;100.00
66381;BME280;53177;52.648;1.214;2022-12-18T06:55:24;101592.25;;;-1.41;100.00
66381;BME280;53177;52.648;1.214;2022-12-18T06:57:50;101590.28;;;-1.39;100.00
66381;BME280;53177;52.648;1.214;2022-12-18T07:00:17;101588.06;;;-1.34;100.00
66381;BME280;53177;52.648;1.214;2022-12-18T07:02:42;101591.88;;;-1.28;100.00
66381;BME280;53177;52.648;1.214;2022-12-18T07:05:08;101589.53;;;-1.31;100.00
66381;BME280;53177;52.648;1.214;2022-12-18T07:07:34;101584.91;;;-1.19;100.00
66381;BME280;53177;52.648;1.214;2022-12-18T07:10:00;101581.44;;;-1.20;100.00
66381;BME280;53177;52.648;1.214;2022-12-18T07:12:27;101576.59;;;-1.24;100.00
66381;BME280;53177;52.648;1.214;2022-12-18T07:14:52;101578.63;;;-1.18;100.00
66381;BME280;53177;52.648;1.214;2022-12-18T07:17:18;101586.25;;;-1.15;100.00
66381;BME280;53177;52.648;1.214;2022-12-18T07:19:43;101583.63;;;-1.15;100.00
66381;BME280;53177;52.648;1.214;2022-12-18T07:22:08;101572.97;;;-1.23;100.00
66381;BME280;53177;52.648;1.214;2022-12-18T07:24:34;101571.34;;;-1.24;100.00
66381;BME280;53177;52.648;1.214;2022-12-18T07:27:00;101582.78;;;-1.16;100.00
66381;BME280;53177;52.648;1.214;2022-12-18T07:29:25;101577.34;;;-1.14;100.00
66381;BME280;53177;52.648;1.214;2022-12-18T07:31:51;101569.28;;;-1.13;100.00
66381;BME280;53177;52.648;1.214;2022-12-18T07:34:16;101577.53;;;-1.16;100.00
66381;BME280;53177;52.648;1.214;2022-12-18T07:36:43;101575.38;;;-1.12;100.00
66381;BME280;53177;52.648;1.214;2022-12-18T07:39:16;101579.53;;;-1.10;100.00
66381;BME280;53177;52.648;1.214;2022-12-18T07:41:42;101585.19;;;-1.05;100.00
66381;BME280;53177;52.648;1.214;2022-12-18T07:44:17;101570.06;;;-1.03;100.00
66381;BME280;53177;52.648;1.214;2022-12-18T07:46:46;101586.38;;;-0.99;100.00
66381;BME280;53177;52.648;1.214;2022-12-18T07:49:15;101579.38;;;-0.90;100.00
66381;BME280;53177;52.648;1.214;2022-12-18T07:51:43;101562.13;;;-0.85;100.00
66381;BME280;53177;52.648;1.214;2022-12-18T07:54:19;101563.00;;;-0.76;100.00
66381;BME280;53177;52.648;1.214;2022-12-18T07:56:48;101555.53;;;-0.81;100.00
66381;BME280;53177;52.648;1.214;2022-12-18T07:59:20;101562.88;;;-0.74;100.00
66381;BME280;53177;52.648;1.214;2022-12-18T08:01:49;101562.59;;;-0.63;100.00
66381;BME280;53177;52.648;1.214;2022-12-18T08:04:15;101546.09;;;-0.65;100.00
66381;BME280;53177;52.648;1.214;2022-12-18T08:06:41;101526.69;;;-0.56;100.00
66381;BME280;53177;52.648;1.214;2022-12-18T08:09:09;101527.34;;;-0.54;100.00
66381;BME280;53177;52.648;1.214;2022-12-18T08:11:34;101531.97;;;-0.56;100.00
66381;BME280;53177;52.648;1.214;2022-12-18T08:14:00;101535.97;;;-0.52;100.00
66381;BME280;53177;52.648;1.214;2022-12-18T08:16:25;101535.84;;;-0.42;100.00
66381;BME280;53177;52.648;1.214;2022-12-18T08:18:52;101536.06;;;-0.36;100.00
66381;BME280;53177;52.648;1.214;2022-12-18T08:21:20;101525.50;;;-0.36;100.00
66381;BME280;53177;52.648;1.214;2022-12-18T08:23:48;101524.16;;;-0.40;100.00
66381;BME280;53177;52.648;1.214;2022-12-18T08:26:14;101525.50;;;-0.36;100.00
66381;BME280;53177;52.648;1.214;2022-12-18T08:28:40;101524.81;;;-0.38;100.00
66381;BME280;53177;52.648;1.214;2022-12-18T08:31:06;101526.53;;;-0.29;100.00
66381;BME280;53177;52.648;1.214;2022-12-18T08:33:33;101521.41;;;-0.30;100.00
66381;BME280;53177;52.648;1.214;2022-12-18T08:35:59;101513.84;;;-0.25;100.00
66381;BME280;53177;52.648;1.214;2022-12-18T08:38:25;101521.59;;;-0.23;100.00
66381;BME280;53177;52.648;1.214;2022-12-18T08:41:15;101522.28;;;-0.21;100.00
66381;BME280;53177;52.648;1.214;2022-12-18T08:43:42;101523.25;;;-0.22;100.00
66381;BME280;53177;52.648;1.214;2022-12-18T08:46:30;101525.06;;;-0.23;100.00
66381;BME280;53177;52.648;1.214;2022-12-18T08:48:57;101522.28;;;-0.21;100.00
66381;BME280;53177;52.648;1.214;2022-12-18T08:51:24;101529.22;;;-0.20;100.00
66381;BME280;53177;52.648;1.214;2022-12-18T08:53:50;101528.91;;;-0.17;100.00
66381;BME280;53177;52.648;1.214;2022-12-18T08:56:15;101528.91;;;-0.17;100.00
66381;BME280;53177;52.648;1.214;2022-12-18T08:58:41;101523.09;;;-0.21;100.00
66381;BME280;53177;52.648;1.214;2022-12-18T09:01:09;101522.28;;;-0.21;100.00
66381;BME280;53177;52.648;1.214;2022-12-18T09:03:35;101518.16;;;-0.16;100.00
66381;BME280;53177;52.648;1.214;2022-12-18T09:06:01;101515.69;;;-0.17;100.00
66381;BME280;53177;52.648;1.214;2022-12-18T09:08:27;101524.63;;;-0.10;100.00
66381;BME280;53177;52.648;1.214;2022-12-18T09:10:53;101523.16;;;-0.13;100.00
66381;BME280;53177;52.648;1.214;2022-12-18T09:13:18;101531.56;;;-0.09;100.00
66381;BME280;53177;52.648;1.214;2022-12-18T09:15:52;101531.09;;;-0.05;100.00
66381;BME280;53177;52.648;1.214;2022-12-18T09:18:20;101515.41;;;-0.06;100.00
66381;BME280;53177;52.648;1.214;2022-12-18T09:20:46;101520.69;;;-0.06;100.00
66381;BME280;53177;52.648;1.214;2022-12-18T09:23:12;101522.03;;;-0.02;100.00
66381;BME280;53177;52.648;1.214;2022-12-18T09:25:38;101525.34;;;0.00;100.00
66381;BME280;53177;52.648;1.214;2022-12-18T09:28:12;101514.13;;;0.06;100.00
66381;BME280;53177;52.648;1.214;2022-12-18T09:30:43;101524.03;;;0.04;100.00
66381;BME280;53177;52.648;1.214;2022-12-18T09:33:09;101516.13;;;0.12;100.00
66381;BME280;53177;52.648;1.214;2022-12-18T09:35:42;101498.63;;;0.11;100.00
66381;BME280;53177;52.648;1.214;2022-12-18T09:38:11;101494.50;;;0.17;100.00
66381;BME280;53177;52.648;1.214;2022-12-18T09:40:46;101497.00;;;0.18;100.00
66381;BME280;53177;52.648;1.214;2022-12-18T09:43:21;101505.59;;;0.20;100.00
66381;BME280;53177;52.648;1.214;2022-12-18T09:45:51;101501.63;;;0.24;100.00
66381;BME280;53177;52.648;1.214;2022-12-18T09:48:23;101505.09;;;0.25;100.00
66381;BME280;53177;52.648;1.214;2022-12-18T09:50:55;101494.03;;;0.21;100.00
66381;BME280;53177;52.648;1.214;2022-12-18T09:53:28;101517.66;;;0.23;100.00
66381;BME280;53177;52.648;1.214;2022-12-18T09:55:56;101503.81;;;0.29;100.00
66381;BME280;53177;52.648;1.214;2022-12-18T09:58:48;101508.25;;;0.29;100.00
66381;BME280;53177;52.648;1.214;2022-12-18T10:01:23;101489.44;;;0.32;100.00
66381;BME280;53177;52.648;1.214;2022-12-18T10:03:50;101485.00;;;0.40;100.00
66381;BME280;53177;52.648;1.214;2022-12-18T10:06:35;101482.84;;;0.44;100.00
66381;BME280;53177;52.648;1.214;2022-12-18T10:12:09;101481.22;;;0.51;100.00
66381;BME280;53177;52.648;1.214;2022-12-18T10:14:50;101467.66;;;0.54;100.00
66381;BME280;53177;52.648;1.214;2022-12-18T10:20:19;101458.06;;;0.53;100.00
66381;BME280;53177;52.648;1.214;2022-12-18T10:25:39;101454.44;;;0.54;100.00
66381;BME280;53177;52.648;1.214;2022-12-18T10:28:10;101462.38;;;0.54;100.00
66381;BME280;53177;52.648;1.214;2022-12-18T10:30:38;101445.50;;;0.55;100.00
66381;BME280;53177;52.648;1.214;2022-12-18T10:33:04;101437.41;;;0.65;100.00
66381;BME280;53177;52.648;1.214;2022-12-18T10:35:29;101429.66;;;0.63;100.00
66381;BME280;53177;52.648;1.214;2022-12-18T10:40:31;101447.81;;;0.66;100.00
66381;BME280;53177;52.648;1.214;2022-12-18T10:43:12;101442.88;;;0.63;100.00
66381;BME280;53177;52.648;1.214;2022-12-18T10:45:38;101435.91;;;0.62;100.00
66381;BME280;53177;52.648;1.214;2022-12-18T10:48:04;101431.94;;;0.66;100.00
66381;BME280;53177;52.648;1.214;2022-12-18T10:50:30;101416.06;;;0.66;100.00
66381;BME280;53177;52.648;1.214;2022-12-18T10:53:02;101403.53;;;0.68;100.00
66381;BME280;53177;52.648;1.214;2022-12-18T10:55:34;101404.84;;;0.72;100.00
66381;BME280;53177;52.648;1.214;2022-12-18T10:58:32;101396.72;;;0.74;100.00
66381;BME280;53177;52.648;1.214;2022-12-18T11:03:35;101392.44;;;0.81;100.00
66381;BME280;53177;52.648;1.214;2022-12-18T11:06:11;101406.00;;;0.86;100.00
66381;BME280;53177;52.648;1.214;2022-12-18T11:08:37;101397.88;;;0.88;100.00
66381;BME280;53177;52.648;1.214;2022-12-18T11:11:07;101392.91;;;0.85;100.00
66381;BME280;53177;52.648;1.214;2022-12-18T11:13:40;101360.84;;;0.88;100.00
66381;BME280;53177;52.648;1.214;2022-12-18T11:16:05;101365.13;;;0.89;100.00
66381;BME280;53177;52.648;1.214;2022-12-18T11:18:35;101365.94;;;0.97;100.00
66381;BME280;53177;52.648;1.214;2022-12-18T11:21:08;101354.19;;;1.00;100.00
66381;BME280;53177;52.648;1.214;2022-12-18T11:23:36;101364.47;;;1.03;100.00
66381;BME280;53177;52.648;1.214;2022-12-18T11:26:04;101320.44;;;1.02;100.00
66381;BME280;53177;52.648;1.214;2022-12-18T11:31:25;101344.22;;;1.10;100.00
66381;BME280;53177;52.648;1.214;2022-12-18T11:36:40;101317.09;;;1.16;100.00
66381;BME280;53177;52.648;1.214;2022-12-18T11:42:28;101287.81;;;1.18;100.00
66381;BME280;53177;52.648;1.214;2022-12-18T11:47:49;101294.88;;;1.25;100.00
66381;BME280;53177;52.648;1.214;2022-12-18T11:53:01;101290.41;;;1.26;100.00
66381;BME280;53177;52.648;1.214;2022-12-18T11:58:47;101266.06;;;1.31;100.00
66381;BME280;53177;52.648;1.214;2022-12-18T12:01:44;101281.13;;;1.30;100.00
66381;BME280;53177;52.648;1.214;2022-12-18T12:26:45;101205.56;;;1.42;100.00
66381;BME280;53177;52.648;1.214;2022-12-18T12:32:17;101200.75;;;1.46;100.00
66381;BME280;53177;52.648;1.214;2022-12-18T12:40:03;101183.50;;;1.50;100.00
66381;BME280;53177;52.648;1.214;2022-12-18T12:42:41;101168.97;;;1.46;100.00
66381;BME280;53177;52.648;1.214;2022-12-18T12:45:35;101158.38;;;1.46;100.00
66381;BME280;53177;52.648;1.214;2022-12-18T12:48:03;101172.63;;;1.45;100.00
66381;BME280;53177;52.648;1.214;2022-12-18T12:50:33;101158.03;;;1.49;100.00
66381;BME280;53177;52.648;1.214;2022-12-18T12:53:01;101151.25;;;1.46;100.00
66381;BME280;53177;52.648;1.214;2022-12-18T12:55:30;101144.44;;;1.52;100.00
66381;BME280;53177;52.648;1.214;2022-12-18T12:58:23;101134.19;;;1.49;100.00
66381;BME280;53177;52.648;1.214;2022-12-18T13:01:04;101135.56;;;1.45;100.00
66381;BME280;53177;52.648;1.214;2022-12-18T13:03:56;101132.72;;;1.46;100.00
66381;BME280;53177;52.648;1.214;2022-12-18T13:09:13;101119.66;;;1.45;100.00
66381;BME280;53177;52.648;1.214;2022-12-18T13:11:45;101109.44;;;1.42;100.00
66381;BME280;53177;52.648;1.214;2022-12-18T13:14:36;101103.13;;;1.43;100.00
66381;BME280;53177;52.648;1.214;2022-12-18T13:19:51;101095.66;;;1.46;100.00
66381;BME280;53177;52.648;1.214;2022-12-18T13:22:43;101086.13;;;1.37;100.00
66381;BME280;53177;52.648;1.214;2022-12-18T13:25:36;101082.94;;;1.42;100.00
66381;BME280;53177;52.648;1.214;2022-12-18T13:30:42;101075.53;;;1.37;100.00
66381;BME280;53177;52.648;1.214;2022-12-18T13:40:58;101028.25;;;1.34;100.00
66381;BME280;53177;52.648;1.214;2022-12-18T13:43:27;101042.13;;;1.36;100.00
66381;BME280;53177;52.648;1.214;2022-12-18T13:46:28;101039.66;;;1.35;100.00
66381;BME280;53177;52.648;1.214;2022-12-18T13:51:24;101041.41;;;1.42;100.00
66381;BME280;53177;52.648;1.214;2022-12-18T13:53:53;101026.44;;;1.35;100.00
66381;BME280;53177;52.648;1.214;2022-12-18T13:56:25;101028.69;;;1.38;100.00
66381;BME280;53177;52.648;1.214;2022-12-18T14:01:59;101044.78;;;1.36;100.00
66381;BME280;53177;52.648;1.214;2022-12-18T14:07:01;101034.44;;;1.26;100.00
66381;BME280;53177;52.648;1.214;2022-12-18T14:09:35;101042.84;;;1.30;100.00
66381;BME280;53177;52.648;1.214;2022-12-18T14:12:01;101042.03;;;1.30;100.00
66381;BME280;53177;52.648;1.214;2022-12-18T14:14:51;101029.78;;;1.29;100.00
66381;BME280;53177;52.648;1.214;2022-12-18T14:17:17;101032.63;;;1.27;100.00
66381;BME280;53177;52.648;1.214;2022-12-18T14:19:48;101024.31;;;1.30;100.00
66381;BME280;53177;52.648;1.214;2022-12-18T14:22:20;101024.47;;;1.29;100.00
66381;BME280;53177;52.648;1.214;2022-12-18T14:24:47;101012.25;;;1.27;100.00
66381;BME280;53177;52.648;1.214;2022-12-18T14:27:29;101021.22;;;1.26;100.00
66381;BME280;53177;52.648;1.214;2022-12-18T14:29:54;101015.25;;;1.24;100.00
66381;BME280;53177;52.648;1.214;2022-12-18T14:32:20;101013.25;;;1.26;100.00
66381;BME280;53177;52.648;1.214;2022-12-18T14:34:51;101019.91;;;1.22;100.00
66381;BME280;53177;52.648;1.214;2022-12-18T14:37:20;101014.91;;;1.27;100.00